sensor_id;sensor_type;location;lat;lon;timestamp;temperature;humidity
11264;DHT22;5689;48.798;9.070;2023-04-23T00:00:06;14.60;98.80
11264;DHT22;5689;48.798;9.070;2023-04-23T00:02:43;14.50;98.80
11264;DHT22;5689;48.798;9.070;2023-04-23T00:05:13;14.40;98.90
11264;DHT22;5689;48.798;9.070;2023-04-23T00:07:42;14.40;99.00
11264;DHT22;5689;48.798;9.070;2023-04-23T00:10:11;14.40;99.20
11264;DHT22;5689;48.798;9.070;2023-04-23T00:12:40;14.50;99.20
11264;DHT22;5689;48.798;9.070;2023-04-23T00:15:11;14.50;99.20
11264;DHT22;5689;48.798;9.070;2023-04-23T00:17:39;14.50;99.30
11264;DHT22;5689;48.798;9.070;2023-04-23T00:20:09;14.40;99.50
11264;DHT22;5689;48.798;9.070;2023-04-23T00:22:37;14.40;99.50
11264;DHT22;5689;48.798;9.070;2023-04-23T00:25:05;14.60;99.50
11264;DHT22;5689;48.798;9.070;2023-04-23T00:27:33;14.50;99.50
11264;DHT22;5689;48.798;9.070;2023-04-23T00:30:01;14.40;99.80
11264;DHT22;5689;48.798;9.070;2023-04-23T00:32:30;14.40;99.90
11264;DHT22;5689;48.798;9.070;2023-04-23T00:34:57;14.30;99.90
11264;DHT22;5689;48.798;9.070;2023-04-23T00:37:27;14.20;99.90
11264;DHT22;5689;48.798;9.070;2023-04-23T00:39:55;14.30;99.90
11264;DHT22;5689;48.798;9.070;2023-04-23T00:42:23;14.20;99.90
11264;DHT22;5689;48.798;9.070;2023-04-23T00:44:51;14.20;99.90
11264;DHT22;5689;48.798;9.070;2023-04-23T00:47:19;14.20;99.90
11264;DHT22;5689;48.798;9.070;2023-04-23T00:49:47;14.20;99.90
11264;DHT22;5689;48.798;9.070;2023-04-23T00:52:16;14.20;99.90
11264;DHT22;5689;48.798;9.070;2023-04-23T00:54:45;14.20;99.90
11264;DHT22;5689;48.798;9.070;2023-04-23T00:57:14;14.20;99.90
11264;DHT22;5689;48.798;9.070;2023-04-23T00:59:42;14.10;99.90
11264;DHT22;5689;48.798;9.070;2023-04-23T01:02:11;14.20;99.90
11264;DHT22;5689;48.798;9.070;2023-04-23T01:04:40;14.20;99.90
11264;DHT22;5689;48.798;9.070;2023-04-23T01:07:10;14.20;99.90
11264;DHT22;5689;48.798;9.070;2023-04-23T01:09:39;13.90;99.90
11264;DHT22;5689;48.798;9.070;2023-04-23T01:12:09;13.90;99.90
11264;DHT22;5689;48.798;9.070;2023-04-23T01:14:38;13.80;99.90
11264;DHT22;5689;48.798;9.070;2023-04-23T01:17:06;13.90;99.90
11264;DHT22;5689;48.798;9.070;2023-04-23T01:19:35;13.80;99.90
11264;DHT22;5689;48.798;9.070;2023-04-23T01:22:08;13.80;99.90
11264;DHT22;5689;48.798;9.070;2023-04-23T01:24:36;13.70;99.90
11264;DHT22;5689;48.798;9.070;2023-04-23T01:27:04;13.60;99.90
11264;DHT22;5689;48.798;9.070;2023-04-23T01:29:33;13.60;99.90
11264;DHT22;5689;48.798;9.070;2023-04-23T01:32:02;13.50;99.90
11264;DHT22;5689;48.798;9.070;2023-04-23T01:34:31;13.50;99.90
11264;DHT22;5689;48.798;9.070;2023-04-23T01:37:00;13.30;99.90
11264;DHT22;5689;48.798;9.070;2023-04-23T01:39:30;13.20;99.90
11264;DHT22;5689;48.798;9.070;2023-04-23T01:41:58;13.30;99.90
11264;DHT22;5689;48.798;9.070;2023-04-23T01:44:30;13.50;99.90
11264;DHT22;5689;48.798;9.070;2023-04-23T01:47:00;13.50;99.90
11264;DHT22;5689;48.798;9.070;2023-04-23T01:49:30;13.50;99.90
11264;DHT22;5689;48.798;9.070;2023-04-23T01:51:58;13.50;99.90
11264;DHT22;5689;48.798;9.070;2023-04-23T01:54:26;13.60;99.90
11264;DHT22;5689;48.798;9.070;2023-04-23T01:56:55;13.60;99.90
11264;DHT22;5689;48.798;9.070;2023-04-23T01:59:24;13.50;99.90
11264;DHT22;5689;48.798;9.070;2023-04-23T02:01:52;13.40;99.90
11264;DHT22;5689;48.798;9.070;2023-04-23T02:04:20;13.50;99.90
11264;DHT22;5689;48.798;9.070;2023-04-23T02:06:50;13.50;99.90
11264;DHT22;5689;48.798;9.070;2023-04-23T02:09:18;13.50;99.90
11264;DHT22;5689;48.798;9.070;2023-04-23T02:11:47;13.40;99.90
11264;DHT22;5689;48.798;9.070;2023-04-23T02:14:16;13.40;99.90
11264;DHT22;5689;48.798;9.070;2023-04-23T02:16:46;13.40;99.90
11264;DHT22;5689;48.798;9.070;2023-04-23T02:19:14;13.50;99.90
11264;DHT22;5689;48.798;9.070;2023-04-23T02:21:42;13.50;99.90
11264;DHT22;5689;48.798;9.070;2023-04-23T02:24:11;13.60;99.90
11264;DHT22;5689;48.798;9.070;2023-04-23T02:26:39;13.50;99.90
11264;DHT22;5689;48.798;9.070;2023-04-23T02:29:07;13.40;99.90
11264;DHT22;5689;48.798;9.070;2023-04-23T02:31:36;13.20;99.90
11264;DHT22;5689;48.798;9.070;2023-04-23T02:34:04;13.10;99.90
11264;DHT22;5689;48.798;9.070;2023-04-23T02:36:32;13.00;99.90
11264;DHT22;5689;48.798;9.070;2023-04-23T02:39:00;12.90;99.90
11264;DHT22;5689;48.798;9.070;2023-04-23T02:41:28;12.90;99.90
11264;DHT22;5689;48.798;9.070;2023-04-23T02:43:56;12.70;99.90
11264;DHT22;5689;48.798;9.070;2023-04-23T02:46:24;12.70;99.90
11264;DHT22;5689;48.798;9.070;2023-04-23T02:48:53;12.60;99.90
11264;DHT22;5689;48.798;9.070;2023-04-23T02:51:21;12.50;99.90
11264;DHT22;5689;48.798;9.070;2023-04-23T02:53:49;12.60;99.90
11264;DHT22;5689;48.798;9.070;2023-04-23T02:56:17;12.60;99.90
11264;DHT22;5689;48.798;9.070;2023-04-23T02:58:45;12.50;99.90
11264;DHT22;5689;48.798;9.070;2023-04-23T03:01:13;12.50;99.90
11264;DHT22;5689;48.798;9.070;2023-04-23T03:03:41;12.40;99.90
11264;DHT22;5689;48.798;9.070;2023-04-23T03:06:10;12.20;99.90
11264;DHT22;5689;48.798;9.070;2023-04-23T03:08:38;12.20;99.90
11264;DHT22;5689;48.798;9.070;2023-04-23T03:11:06;12.10;99.90
11264;DHT22;5689;48.798;9.070;2023-04-23T03:13:34;12.00;99.90
11264;DHT22;5689;48.798;9.070;2023-04-23T03:16:03;12.00;99.90
11264;DHT22;5689;48.798;9.070;2023-04-23T03:18:31;12.00;99.90
11264;DHT22;5689;48.798;9.070;2023-04-23T03:20:59;12.00;99.90
11264;DHT22;5689;48.798;9.070;2023-04-23T03:23:28;11.90;99.90
11264;DHT22;5689;48.798;9.070;2023-04-23T03:25:56;11.80;99.90
11264;DHT22;5689;48.798;9.070;2023-04-23T03:28:24;11.80;99.90
11264;DHT22;5689;48.798;9.070;2023-04-23T03:30:52;11.80;99.90
11264;DHT22;5689;48.798;9.070;2023-04-23T03:33:20;11.80;99.90
11264;DHT22;5689;48.798;9.070;2023-04-23T03:35:48;11.70;99.90
11264;DHT22;5689;48.798;9.070;2023-04-23T03:38:20;11.70;99.90
11264;DHT22;5689;48.798;9.070;2023-04-23T03:40:52;11.70;99.90
11264;DHT22;5689;48.798;9.070;2023-04-23T03:43:20;11.60;99.90
11264;DHT22;5689;48.798;9.070;2023-04-23T03:46:20;11.60;99.90
11264;DHT22;5689;48.798;9.070;2023-04-23T03:48:48;11.70;99.90
11264;DHT22;5689;48.798;9.070;2023-04-23T03:51:23;11.60;99.90
11264;DHT22;5689;48.798;9.070;2023-04-23T03:53:51;11.60;99.90
11264;DHT22;5689;48.798;9.070;2023-04-23T03:56:39;11.70;99.90
11264;DHT22;5689;48.798;9.070;2023-04-23T03:59:22;11.70;99.90
11264;DHT22;5689;48.798;9.070;2023-04-23T04:01:53;11.70;99.90
11264;DHT22;5689;48.798;9.070;2023-04-23T04:04:21;11.80;99.90
11264;DHT22;5689;48.798;9.070;2023-04-23T04:06:49;11.90;99.90
11264;DHT22;5689;48.798;9.070;2023-04-23T04:09:17;11.90;99.90
11264;DHT22;5689;48.798;9.070;2023-04-23T04:11:46;11.80;99.90
11264;DHT22;5689;48.798;9.070;2023-04-23T04:14:14;11.70;99.90
11264;DHT22;5689;48.798;9.070;2023-04-23T04:16:42;11.60;99.90
11264;DHT22;5689;48.798;9.070;2023-04-23T04:19:10;11.60;99.90
11264;DHT22;5689;48.798;9.070;2023-04-23T04:21:38;11.50;99.90
11264;DHT22;5689;48.798;9.070;2023-04-23T04:24:06;11.40;99.90
11264;DHT22;5689;48.798;9.070;2023-04-23T04:26:36;11.40;99.90
11264;DHT22;5689;48.798;9.070;2023-04-23T04:29:07;11.30;99.90
11264;DHT22;5689;48.798;9.070;2023-04-23T04:31:36;11.30;99.90
11264;DHT22;5689;48.798;9.070;2023-04-23T04:34:04;11.40;99.90
11264;DHT22;5689;48.798;9.070;2023-04-23T04:36:32;11.50;99.90
11264;DHT22;5689;48.798;9.070;2023-04-23T04:39:01;11.40;99.90
11264;DHT22;5689;48.798;9.070;2023-04-23T04:41:29;11.50;99.90
11264;DHT22;5689;48.798;9.070;2023-04-23T04:43:57;11.50;99.90
11264;DHT22;5689;48.798;9.070;2023-04-23T04:46:26;11.50;99.90
11264;DHT22;5689;48.798;9.070;2023-04-23T04:48:54;11.60;99.90
11264;DHT22;5689;48.798;9.070;2023-04-23T04:51:22;11.60;99.90
11264;DHT22;5689;48.798;9.070;2023-04-23T04:53:50;11.60;99.90
11264;DHT22;5689;48.798;9.070;2023-04-23T04:56:18;11.80;99.90
11264;DHT22;5689;48.798;9.070;2023-04-23T04:58:47;11.90;99.90
11264;DHT22;5689;48.798;9.070;2023-04-23T05:01:15;11.90;99.90
11264;DHT22;5689;48.798;9.070;2023-04-23T05:03:45;12.00;99.90
11264;DHT22;5689;48.798;9.070;2023-04-23T05:06:13;12.20;99.90
11264;DHT22;5689;48.798;9.070;2023-04-23T05:08:41;12.10;99.90
11264;DHT22;5689;48.798;9.070;2023-04-23T05:11:13;12.20;99.90
11264;DHT22;5689;48.798;9.070;2023-04-23T05:13:42;12.20;99.90
11264;DHT22;5689;48.798;9.070;2023-04-23T05:16:10;12.20;99.90
11264;DHT22;5689;48.798;9.070;2023-04-23T05:18:38;12.30;99.90
11264;DHT22;5689;48.798;9.070;2023-04-23T05:21:08;12.30;99.90
11264;DHT22;5689;48.798;9.070;2023-04-23T05:23:36;12.20;99.90
11264;DHT22;5689;48.798;9.070;2023-04-23T05:26:04;12.40;99.90
11264;DHT22;5689;48.798;9.070;2023-04-23T05:28:32;12.50;99.90
11264;DHT22;5689;48.798;9.070;2023-04-23T05:30:59;12.60;99.90
11264;DHT22;5689;48.798;9.070;2023-04-23T05:33:27;12.80;99.90
11264;DHT22;5689;48.798;9.070;2023-04-23T05:35:58;13.00;99.90
11264;DHT22;5689;48.798;9.070;2023-04-23T05:38:28;13.00;99.90
11264;DHT22;5689;48.798;9.070;2023-04-23T05:40:56;12.80;99.90
11264;DHT22;5689;48.798;9.070;2023-04-23T05:43:24;12.90;99.90
11264;DHT22;5689;48.798;9.070;2023-04-23T05:45:52;13.00;99.90
11264;DHT22;5689;48.798;9.070;2023-04-23T05:48:20;13.00;99.90
11264;DHT22;5689;48.798;9.070;2023-04-23T05:50:48;12.90;99.90
11264;DHT22;5689;48.798;9.070;2023-04-23T05:53:16;13.10;99.90
11264;DHT22;5689;48.798;9.070;2023-04-23T05:55:45;13.40;99.90
11264;DHT22;5689;48.798;9.070;2023-04-23T05:58:13;13.40;99.90
11264;DHT22;5689;48.798;9.070;2023-04-23T06:00:42;13.70;99.90
11264;DHT22;5689;48.798;9.070;2023-04-23T06:03:10;13.60;99.90
11264;DHT22;5689;48.798;9.070;2023-04-23T06:05:38;13.60;99.90
11264;DHT22;5689;48.798;9.070;2023-04-23T06:08:14;13.80;99.90
11264;DHT22;5689;48.798;9.070;2023-04-23T06:10:52;13.80;99.90
11264;DHT22;5689;48.798;9.070;2023-04-23T06:13:21;13.90;99.90
11264;DHT22;5689;48.798;9.070;2023-04-23T06:15:49;13.80;99.90
11264;DHT22;5689;48.798;9.070;2023-04-23T06:18:17;13.90;99.90
11264;DHT22;5689;48.798;9.070;2023-04-23T06:20:45;13.90;99.90
11264;DHT22;5689;48.798;9.070;2023-04-23T06:23:14;14.00;99.90
11264;DHT22;5689;48.798;9.070;2023-04-23T06:25:42;14.00;99.90
11264;DHT22;5689;48.798;9.070;2023-04-23T06:28:11;13.90;99.90
11264;DHT22;5689;48.798;9.070;2023-04-23T06:31:00;13.70;99.90
11264;DHT22;5689;48.798;9.070;2023-04-23T06:33:28;13.90;99.90
11264;DHT22;5689;48.798;9.070;2023-04-23T06:35:56;14.00;99.90
11264;DHT22;5689;48.798;9.070;2023-04-23T06:38:24;14.20;99.90
11264;DHT22;5689;48.798;9.070;2023-04-23T06:40:52;14.20;99.90
11264;DHT22;5689;48.798;9.070;2023-04-23T06:43:22;14.10;99.90
11264;DHT22;5689;48.798;9.070;2023-04-23T06:46:17;14.10;99.90
11264;DHT22;5689;48.798;9.070;2023-04-23T06:48:45;14.00;99.90
11264;DHT22;5689;48.798;9.070;2023-04-23T06:51:14;14.30;99.90
11264;DHT22;5689;48.798;9.070;2023-04-23T06:53:42;15.30;99.90
11264;DHT22;5689;48.798;9.070;2023-04-23T06:56:10;15.90;99.90
11264;DHT22;5689;48.798;9.070;2023-04-23T06:58:39;15.60;99.90
11264;DHT22;5689;48.798;9.070;2023-04-23T07:01:16;15.40;99.90
11264;DHT22;5689;48.798;9.070;2023-04-23T07:03:44;15.60;99.90
11264;DHT22;5689;48.798;9.070;2023-04-23T07:06:14;15.60;99.90
11264;DHT22;5689;48.798;9.070;2023-04-23T07:08:42;15.40;99.90
11264;DHT22;5689;48.798;9.070;2023-04-23T07:11:11;15.80;99.90
11264;DHT22;5689;48.798;9.070;2023-04-23T07:13:41;17.20;99.90
11264;DHT22;5689;48.798;9.070;2023-04-23T07:16:09;18.40;99.90
11264;DHT22;5689;48.798;9.070;2023-04-23T07:18:37;18.40;99.90
11264;DHT22;5689;48.798;9.070;2023-04-23T07:21:05;19.00;99.90
11264;DHT22;5689;48.798;9.070;2023-04-23T07:23:33;18.50;99.90
11264;DHT22;5689;48.798;9.070;2023-04-23T07:26:01;17.90;99.90
11264;DHT22;5689;48.798;9.070;2023-04-23T07:28:29;17.60;99.90
11264;DHT22;5689;48.798;9.070;2023-04-23T07:30:59;17.00;99.90
11264;DHT22;5689;48.798;9.070;2023-04-23T07:33:27;16.40;99.90
11264;DHT22;5689;48.798;9.070;2023-04-23T07:35:55;16.30;99.90
11264;DHT22;5689;48.798;9.070;2023-04-23T07:38:23;16.50;99.90
11264;DHT22;5689;48.798;9.070;2023-04-23T07:40:51;16.10;99.90
11264;DHT22;5689;48.798;9.070;2023-04-23T07:43:19;16.10;99.90
11264;DHT22;5689;48.798;9.070;2023-04-23T07:45:47;15.80;99.90
11264;DHT22;5689;48.798;9.070;2023-04-23T07:48:16;16.00;99.90
11264;DHT22;5689;48.798;9.070;2023-04-23T07:50:44;16.00;99.90
11264;DHT22;5689;48.798;9.070;2023-04-23T07:53:12;16.10;99.90
11264;DHT22;5689;48.798;9.070;2023-04-23T07:55:40;16.70;99.90
11264;DHT22;5689;48.798;9.070;2023-04-23T07:58:08;17.80;99.90
11264;DHT22;5689;48.798;9.070;2023-04-23T08:00:36;19.60;99.90
11264;DHT22;5689;48.798;9.070;2023-04-23T08:03:04;19.60;99.90
11264;DHT22;5689;48.798;9.070;2023-04-23T08:05:33;19.90;99.90
11264;DHT22;5689;48.798;9.070;2023-04-23T08:08:02;19.60;99.90
11264;DHT22;5689;48.798;9.070;2023-04-23T08:10:31;19.00;99.70
11264;DHT22;5689;48.798;9.070;2023-04-23T08:12:59;19.00;98.60
11264;DHT22;5689;48.798;9.070;2023-04-23T08:15:27;19.60;97.80
11264;DHT22;5689;48.798;9.070;2023-04-23T08:17:55;20.20;98.90
11264;DHT22;5689;48.798;9.070;2023-04-23T08:20:23;21.30;97.40
11264;DHT22;5689;48.798;9.070;2023-04-23T08:22:53;21.10;97.50
11264;DHT22;5689;48.798;9.070;2023-04-23T08:25:22;20.60;97.70
11264;DHT22;5689;48.798;9.070;2023-04-23T08:27:50;20.00;97.60
11264;DHT22;5689;48.798;9.070;2023-04-23T08:30:18;19.70;97.40
11264;DHT22;5689;48.798;9.070;2023-04-23T08:32:48;19.60;96.80
11264;DHT22;5689;48.798;9.070;2023-04-23T08:35:16;19.20;96.60
11264;DHT22;5689;48.798;9.070;2023-04-23T08:37:44;18.50;97.30
11264;DHT22;5689;48.798;9.070;2023-04-23T08:40:14;18.20;98.50
11264;DHT22;5689;48.798;9.070;2023-04-23T08:42:46;18.50;97.20
11264;DHT22;5689;48.798;9.070;2023-04-23T08:45:16;18.30;97.90
11264;DHT22;5689;48.798;9.070;2023-04-23T08:47:44;18.90;97.20
11264;DHT22;5689;48.798;9.070;2023-04-23T08:50:14;18.70;96.00
11264;DHT22;5689;48.798;9.070;2023-04-23T08:52:46;18.40;96.50
11264;DHT22;5689;48.798;9.070;2023-04-23T08:55:16;18.90;97.70
11264;DHT22;5689;48.798;9.070;2023-04-23T08:57:46;19.60;96.80
11264;DHT22;5689;48.798;9.070;2023-04-23T09:00:16;21.20;96.90
11264;DHT22;5689;48.798;9.070;2023-04-23T09:02:46;23.20;93.50
11264;DHT22;5689;48.798;9.070;2023-04-23T09:05:14;23.80;91.60
11264;DHT22;5689;48.798;9.070;2023-04-23T09:07:43;22.30;91.40
11264;DHT22;5689;48.798;9.070;2023-04-23T09:10:12;20.80;93.70
11264;DHT22;5689;48.798;9.070;2023-04-23T09:12:43;19.80;95.10
11264;DHT22;5689;48.798;9.070;2023-04-23T09:15:12;19.50;95.60
11264;DHT22;5689;48.798;9.070;2023-04-23T09:17:43;19.00;91.50
11264;DHT22;5689;48.798;9.070;2023-04-23T09:20:13;18.80;94.90
11264;DHT22;5689;48.798;9.070;2023-04-23T09:22:42;18.30;96.40
11264;DHT22;5689;48.798;9.070;2023-04-23T09:25:13;17.80;96.70
11264;DHT22;5689;48.798;9.070;2023-04-23T09:27:43;17.40;98.00
11264;DHT22;5689;48.798;9.070;2023-04-23T09:30:12;17.80;98.30
11264;DHT22;5689;48.798;9.070;2023-04-23T09:32:44;18.60;96.10
11264;DHT22;5689;48.798;9.070;2023-04-23T09:35:14;18.90;95.70
11264;DHT22;5689;48.798;9.070;2023-04-23T09:37:43;20.10;94.10
11264;DHT22;5689;48.798;9.070;2023-04-23T09:40:15;20.80;91.40
11264;DHT22;5689;48.798;9.070;2023-04-23T09:42:48;20.10;91.10
11264;DHT22;5689;48.798;9.070;2023-04-23T09:45:16;20.20;92.10
11264;DHT22;5689;48.798;9.070;2023-04-23T09:47:48;20.10;93.40
11264;DHT22;5689;48.798;9.070;2023-04-23T09:50:17;21.00;91.00
11264;DHT22;5689;48.798;9.070;2023-04-23T09:52:53;21.70;91.50
11264;DHT22;5689;48.798;9.070;2023-04-23T09:55:27;22.00;87.30
11264;DHT22;5689;48.798;9.070;2023-04-23T09:57:58;21.90;88.50
11264;DHT22;5689;48.798;9.070;2023-04-23T10:00:32;21.30;90.20
11264;DHT22;5689;48.798;9.070;2023-04-23T10:03:00;20.70;89.80
11264;DHT22;5689;48.798;9.070;2023-04-23T10:05:28;20.10;88.10
11264;DHT22;5689;48.798;9.070;2023-04-23T10:08:00;20.00;90.60
11264;DHT22;5689;48.798;9.070;2023-04-23T10:10:29;20.80;87.40
11264;DHT22;5689;48.798;9.070;2023-04-23T10:12:59;20.70;87.80
11264;DHT22;5689;48.798;9.070;2023-04-23T10:15:28;20.90;85.80
11264;DHT22;5689;48.798;9.070;2023-04-23T10:17:56;21.10;84.70
11264;DHT22;5689;48.798;9.070;2023-04-23T10:20:25;22.00;85.30
11264;DHT22;5689;48.798;9.070;2023-04-23T10:22:53;21.30;88.80
11264;DHT22;5689;48.798;9.070;2023-04-23T10:25:23;21.50;82.10
11264;DHT22;5689;48.798;9.070;2023-04-23T10:27:52;22.40;78.60
11264;DHT22;5689;48.798;9.070;2023-04-23T10:30:23;21.70;76.70
11264;DHT22;5689;48.798;9.070;2023-04-23T10:32:52;21.30;79.00
11264;DHT22;5689;48.798;9.070;2023-04-23T10:35:20;21.80;76.80
11264;DHT22;5689;48.798;9.070;2023-04-23T10:37:49;22.60;73.60
11264;DHT22;5689;48.798;9.070;2023-04-23T10:40:19;22.10;76.10
11264;DHT22;5689;48.798;9.070;2023-04-23T10:42:48;22.20;83.10
11264;DHT22;5689;48.798;9.070;2023-04-23T10:45:18;21.80;76.60
11264;DHT22;5689;48.798;9.070;2023-04-23T10:47:52;22.20;76.60
11264;DHT22;5689;48.798;9.070;2023-04-23T10:50:22;22.60;75.40
11264;DHT22;5689;48.798;9.070;2023-04-23T10:52:51;22.30;75.60
11264;DHT22;5689;48.798;9.070;2023-04-23T10:55:21;22.50;74.90
11264;DHT22;5689;48.798;9.070;2023-04-23T10:57:55;22.00;73.50
11264;DHT22;5689;48.798;9.070;2023-04-23T11:00:26;23.20;72.90
11264;DHT22;5689;48.798;9.070;2023-04-23T11:02:56;24.10;74.60
11264;DHT22;5689;48.798;9.070;2023-04-23T11:05:24;26.50;67.90
11264;DHT22;5689;48.798;9.070;2023-04-23T11:08:05;25.80;65.10
11264;DHT22;5689;48.798;9.070;2023-04-23T11:10:50;23.10;69.70
11264;DHT22;5689;48.798;9.070;2023-04-23T11:13:24;22.90;71.00
11264;DHT22;5689;48.798;9.070;2023-04-23T11:16:12;24.20;69.10
11264;DHT22;5689;48.798;9.070;2023-04-23T11:18:57;22.00;74.00
11264;DHT22;5689;48.798;9.070;2023-04-23T11:21:59;21.30;75.90
11264;DHT22;5689;48.798;9.070;2023-04-23T11:24:29;21.40;77.70
11264;DHT22;5689;48.798;9.070;2023-04-23T11:26:57;21.80;74.60
11264;DHT22;5689;48.798;9.070;2023-04-23T11:29:27;21.60;73.90
11264;DHT22;5689;48.798;9.070;2023-04-23T11:31:55;21.90;72.50
11264;DHT22;5689;48.798;9.070;2023-04-23T11:34:29;22.40;72.40
11264;DHT22;5689;48.798;9.070;2023-04-23T11:36:58;22.60;74.30
11264;DHT22;5689;48.798;9.070;2023-04-23T11:39:26;22.40;71.80
11264;DHT22;5689;48.798;9.070;2023-04-23T11:41:55;22.30;73.00
11264;DHT22;5689;48.798;9.070;2023-04-23T11:44:24;23.50;71.30
11264;DHT22;5689;48.798;9.070;2023-04-23T11:46:52;23.80;69.40
11264;DHT22;5689;48.798;9.070;2023-04-23T11:49:22;24.00;69.20
11264;DHT22;5689;48.798;9.070;2023-04-23T11:51:51;23.30;73.50
11264;DHT22;5689;48.798;9.070;2023-04-23T11:54:24;23.70;70.70
11264;DHT22;5689;48.798;9.070;2023-04-23T11:56:53;24.60;70.60
11264;DHT22;5689;48.798;9.070;2023-04-23T11:59:21;26.30;68.90
11264;DHT22;5689;48.798;9.070;2023-04-23T12:01:56;26.90;64.50
11264;DHT22;5689;48.798;9.070;2023-04-23T12:04:25;26.00;64.20
11264;DHT22;5689;48.798;9.070;2023-04-23T12:06:55;25.10;65.50
11264;DHT22;5689;48.798;9.070;2023-04-23T12:09:25;24.60;67.30
11264;DHT22;5689;48.798;9.070;2023-04-23T12:11:57;24.20;67.50
11264;DHT22;5689;48.798;9.070;2023-04-23T12:14:26;23.70;68.00
11264;DHT22;5689;48.798;9.070;2023-04-23T12:16:56;24.70;67.40
11264;DHT22;5689;48.798;9.070;2023-04-23T12:19:28;24.10;66.80
11264;DHT22;5689;48.798;9.070;2023-04-23T12:21:59;22.80;70.00
11264;DHT22;5689;48.798;9.070;2023-04-23T12:24:28;22.50;71.40
11264;DHT22;5689;48.798;9.070;2023-04-23T12:26:58;23.80;69.20
11264;DHT22;5689;48.798;9.070;2023-04-23T12:29:29;25.60;65.60
11264;DHT22;5689;48.798;9.070;2023-04-23T12:31:58;26.00;64.90
11264;DHT22;5689;48.798;9.070;2023-04-23T12:34:26;24.90;66.90
11264;DHT22;5689;48.798;9.070;2023-04-23T12:36:55;23.50;67.90
11264;DHT22;5689;48.798;9.070;2023-04-23T12:39:27;23.40;68.60
11264;DHT22;5689;48.798;9.070;2023-04-23T12:42:00;26.50;65.00
11264;DHT22;5689;48.798;9.070;2023-04-23T12:44:31;29.60;62.40
11264;DHT22;5689;48.798;9.070;2023-04-23T12:47:01;29.70;58.20
11264;DHT22;5689;48.798;9.070;2023-04-23T12:49:31;28.70;58.50
11264;DHT22;5689;48.798;9.070;2023-04-23T12:52:01;27.70;59.70
11264;DHT22;5689;48.798;9.070;2023-04-23T12:54:32;27.50;60.80
11264;DHT22;5689;48.798;9.070;2023-04-23T12:57:03;24.40;64.30
11264;DHT22;5689;48.798;9.070;2023-04-23T12:59:32;23.00;67.10
11264;DHT22;5689;48.798;9.070;2023-04-23T13:02:00;22.90;67.20
11264;DHT22;5689;48.798;9.070;2023-04-23T13:04:30;24.80;66.40
11264;DHT22;5689;48.798;9.070;2023-04-23T13:06:58;26.90;61.70
11264;DHT22;5689;48.798;9.070;2023-04-23T13:09:27;26.50;60.70
11264;DHT22;5689;48.798;9.070;2023-04-23T13:11:57;27.80;59.20
11264;DHT22;5689;48.798;9.070;2023-04-23T13:14:25;27.80;59.50
11264;DHT22;5689;48.798;9.070;2023-04-23T13:16:53;28.60;56.50
11264;DHT22;5689;48.798;9.070;2023-04-23T13:19:23;27.40;59.00
11264;DHT22;5689;48.798;9.070;2023-04-23T13:21:51;28.70;57.30
11264;DHT22;5689;48.798;9.070;2023-04-23T13:24:20;27.40;57.70
11264;DHT22;5689;48.798;9.070;2023-04-23T13:26:48;28.10;57.10
11264;DHT22;5689;48.798;9.070;2023-04-23T13:29:19;29.60;58.10
11264;DHT22;5689;48.798;9.070;2023-04-23T13:31:47;29.70;56.20
11264;DHT22;5689;48.798;9.070;2023-04-23T13:34:15;28.10;55.60
11264;DHT22;5689;48.798;9.070;2023-04-23T13:36:43;27.80;56.50
11264;DHT22;5689;48.798;9.070;2023-04-23T13:39:11;28.40;55.50
11264;DHT22;5689;48.798;9.070;2023-04-23T13:41:39;27.80;55.20
11264;DHT22;5689;48.798;9.070;2023-04-23T13:44:08;26.70;56.30
11264;DHT22;5689;48.798;9.070;2023-04-23T13:46:37;26.00;58.10
11264;DHT22;5689;48.798;9.070;2023-04-23T13:49:05;27.10;57.30
11264;DHT22;5689;48.798;9.070;2023-04-23T13:51:34;27.30;56.60
11264;DHT22;5689;48.798;9.070;2023-04-23T13:54:02;26.70;57.10
11264;DHT22;5689;48.798;9.070;2023-04-23T13:56:30;25.60;59.40
11264;DHT22;5689;48.798;9.070;2023-04-23T13:58:58;26.10;59.10
11264;DHT22;5689;48.798;9.070;2023-04-23T14:01:39;27.70;57.40
11264;DHT22;5689;48.798;9.070;2023-04-23T14:04:07;28.00;56.20
11264;DHT22;5689;48.798;9.070;2023-04-23T14:06:35;27.80;56.00
11264;DHT22;5689;48.798;9.070;2023-04-23T14:09:03;27.70;55.20
11264;DHT22;5689;48.798;9.070;2023-04-23T14:11:31;28.10;53.00
11264;DHT22;5689;48.798;9.070;2023-04-23T14:13:59;27.10;55.30
11264;DHT22;5689;48.798;9.070;2023-04-23T14:16:27;26.30;54.40
11264;DHT22;5689;48.798;9.070;2023-04-23T14:18:56;26.30;54.90
11264;DHT22;5689;48.798;9.070;2023-04-23T14:21:24;25.00;56.10
11264;DHT22;5689;48.798;9.070;2023-04-23T14:23:55;25.10;55.30
11264;DHT22;5689;48.798;9.070;2023-04-23T14:26:31;24.70;55.60
11264;DHT22;5689;48.798;9.070;2023-04-23T14:29:09;25.30;56.50
11264;DHT22;5689;48.798;9.070;2023-04-23T14:31:38;26.00;54.50
11264;DHT22;5689;48.798;9.070;2023-04-23T14:34:07;26.00;55.50
11264;DHT22;5689;48.798;9.070;2023-04-23T14:36:35;25.40;57.50
11264;DHT22;5689;48.798;9.070;2023-04-23T14:39:03;26.00;54.70
11264;DHT22;5689;48.798;9.070;2023-04-23T14:41:31;25.40;55.00
11264;DHT22;5689;48.798;9.070;2023-04-23T14:44:00;24.50;57.20
11264;DHT22;5689;48.798;9.070;2023-04-23T14:46:28;23.70;58.20
11264;DHT22;5689;48.798;9.070;2023-04-23T14:48:56;24.50;58.50
11264;DHT22;5689;48.798;9.070;2023-04-23T14:51:26;23.40;59.00
11264;DHT22;5689;48.798;9.070;2023-04-23T14:53:54;22.60;59.30
11264;DHT22;5689;48.798;9.070;2023-04-23T14:56:22;21.40;61.70
11264;DHT22;5689;48.798;9.070;2023-04-23T14:58:50;21.00;62.50
11264;DHT22;5689;48.798;9.070;2023-04-23T15:01:18;20.90;61.60
11264;DHT22;5689;48.798;9.070;2023-04-23T15:03:46;20.70;62.50
11264;DHT22;5689;48.798;9.070;2023-04-23T15:06:14;20.90;62.40
11264;DHT22;5689;48.798;9.070;2023-04-23T15:08:43;21.00;62.00
11264;DHT22;5689;48.798;9.070;2023-04-23T15:11:11;21.20;62.10
11264;DHT22;5689;48.798;9.070;2023-04-23T15:13:44;20.90;62.50
11264;DHT22;5689;48.798;9.070;2023-04-23T15:16:24;20.90;62.70
11264;DHT22;5689;48.798;9.070;2023-04-23T15:19:06;21.20;62.70
11264;DHT22;5689;48.798;9.070;2023-04-23T15:21:35;21.00;62.20
11264;DHT22;5689;48.798;9.070;2023-04-23T15:24:05;21.30;62.70
11264;DHT22;5689;48.798;9.070;2023-04-23T15:26:34;21.40;61.70
11264;DHT22;5689;48.798;9.070;2023-04-23T15:29:03;21.30;63.00
11264;DHT22;5689;48.798;9.070;2023-04-23T15:31:31;21.10;62.60
11264;DHT22;5689;48.798;9.070;2023-04-23T15:34:01;21.00;62.90
11264;DHT22;5689;48.798;9.070;2023-04-23T15:36:31;21.10;64.60
11264;DHT22;5689;48.798;9.070;2023-04-23T15:39:01;21.20;63.40
11264;DHT22;5689;48.798;9.070;2023-04-23T15:41:30;20.80;64.40
11264;DHT22;5689;48.798;9.070;2023-04-23T15:43:58;20.60;68.20
11264;DHT22;5689;48.798;9.070;2023-04-23T15:46:26;20.30;70.70
11264;DHT22;5689;48.798;9.070;2023-04-23T15:48:54;18.90;82.00
11264;DHT22;5689;48.798;9.070;2023-04-23T15:51:22;17.90;92.40
11264;DHT22;5689;48.798;9.070;2023-04-23T15:53:50;17.40;94.70
11264;DHT22;5689;48.798;9.070;2023-04-23T15:56:18;17.20;97.60
11264;DHT22;5689;48.798;9.070;2023-04-23T15:58:48;17.00;98.10